Copper Queen, Arizona
Current Conditions -  °F | °C
As of 4:56 PM on Wednesday 26 Nov 2014 (Local Time) from KDUG Reporting Station
Clear Clear  
Wind Chill: 18°   Ceiling: Unl
Heat Index: 18°   Visibility: 10mi
Dew Point: -10°   Wind: 5mph
Humidity: 14%   Direction: 310°NW
Pressure: 30.26"   Gusts: NA
Location:  31.4799°N, 109.96°W
Report Text: KDUG 262356Z AUTO 31004KT 10SM CLR 18/M10 A3026 RMK AO2 SLP226 T01831100 10217 20139 55002
Loading
Personal Weather Stations






























Interactive Weather Map New forecast layout! Learn more

10-Day Weather Forecast

Advertisements
Track Severe Weather on mobile